Terminal Aerodrome Forecast
Issued by NWS

Home | Current Version | Previous Version | Text Only | Print | Product List | Glossary On
Versions: 1 2 3 4 5 6 7 8 9 10 11 12 13 14 15 16
000
FTUS45 KTFX 011700
TAFLWT
TAF
KLWT 011739Z 0118/0218 30025G37KT P6SM VCSH SCT060 BKN090
     FM020200 28015KT P6SM SCT060 BKN090
     FM020600 30015KT P6SM VCSH SCT020 OVC040=

USA.gov is the U.S. government's official web portal to all federal, state and local government web resources and services.